createdAt,value
2024-01-16T00:03:53.391Z,62.89
2024-01-16T00:08:55.585Z,62.77
2024-01-16T00:13:57.430Z,62.96
2024-01-16T00:18:59.076Z,62.70
2024-01-16T00:24:00.801Z,62.84
2024-01-16T00:29:02.447Z,62.64
2024-01-16T00:34:04.764Z,62.85
2024-01-16T00:39:09.337Z,62.83
2024-01-16T00:44:12.166Z,62.80
2024-01-16T00:49:15.944Z,63.02
2024-01-16T00:54:18.762Z,64.11
2024-01-16T00:59:22.789Z,64.04
2024-01-16T01:04:24.386Z,63.80
2024-01-16T01:09:26.035Z,64.06
2024-01-16T01:14:30.467Z,64.20
2024-01-16T01:19:32.301Z,64.27
2024-01-16T01:24:41.593Z,64.28
2024-01-16T01:29:43.632Z,64.04
2024-01-16T01:34:45.311Z,64.35
2024-01-16T01:39:47.038Z,64.15
2024-01-16T01:44:49.704Z,63.77
2024-01-16T01:49:52.963Z,64.45
2024-01-16T01:54:54.529Z,64.07
2024-01-16T01:59:56.991Z,63.84
2024-01-16T02:04:59.304Z,64.10
2024-01-16T02:10:01.784Z,63.88
2024-01-16T02:15:04.995Z,63.70
2024-01-16T02:25:10.980Z,63.69
2024-01-16T02:30:14.482Z,64.20
2024-01-16T02:35:16.971Z,63.91
2024-01-16T02:40:18.840Z,63.91
2024-01-16T02:45:21.156Z,63.49
2024-01-16T02:50:22.701Z,63.56
2024-01-16T02:55:24.375Z,63.73
2024-01-16T03:00:26.282Z,63.59
2024-01-16T03:05:27.968Z,64.42
2024-01-16T03:10:29.631Z,64.04
2024-01-16T03:15:32.251Z,64.36
2024-01-16T03:20:34.006Z,64.15
2024-01-16T03:25:40.180Z,64.96
2024-01-16T03:30:42.158Z,64.71
2024-01-16T03:35:44.132Z,64.86
2024-01-16T03:40:46.660Z,64.36
2024-01-16T03:45:48.388Z,64.46
2024-01-16T03:50:50.016Z,64.89
2024-01-16T03:55:52.301Z,64.31
2024-01-16T04:00:54.670Z,64.80
2024-01-16T04:05:56.568Z,64.08
2024-01-16T04:10:58.190Z,64.42
2024-01-16T04:15:59.966Z,64.12
2024-01-16T04:21:02.514Z,64.62
2024-01-16T04:26:04.223Z,64.40
2024-01-16T04:31:05.970Z,64.25
2024-01-16T04:36:10.992Z,63.73
2024-01-16T04:41:12.597Z,63.68
2024-01-16T04:46:15.991Z,63.82
2024-01-16T04:51:17.845Z,63.67
2024-01-16T04:56:19.418Z,64.08
2024-01-16T05:01:20.983Z,64.63
2024-01-16T05:06:22.668Z,64.82
2024-01-16T05:11:24.380Z,65.21
2024-01-16T05:16:26.945Z,65.37
2024-01-16T05:21:28.634Z,65.87
2024-01-16T05:26:30.300Z,65.76
2024-01-16T05:31:40.769Z,66.09
2024-01-16T05:36:42.907Z,66.11
2024-01-16T05:41:44.548Z,66.27
2024-01-16T05:46:46.862Z,66.14
2024-01-16T05:51:48.464Z,66.21
2024-01-16T05:56:51.517Z,65.64
2024-01-16T06:01:53.880Z,66.64
2024-01-16T06:06:55.928Z,66.13
2024-01-16T06:11:57.516Z,65.80
2024-01-16T06:16:59.145Z,65.97
2024-01-16T06:22:01.619Z,66.13
2024-01-16T06:27:06.396Z,66.41
2024-01-16T06:32:08.101Z,66.28
2024-01-16T06:37:10.598Z,65.72
2024-01-16T06:42:12.569Z,65.40
2024-01-16T06:47:14.196Z,66.32
2024-01-16T06:52:15.850Z,66.00
2024-01-16T06:57:19.116Z,66.14
2024-01-16T07:02:20.880Z,66.42
2024-01-16T07:07:22.568Z,66.86
2024-01-16T07:12:24.566Z,66.41
2024-01-16T07:17:26.411Z,66.87
2024-01-16T07:22:29.368Z,66.59
2024-01-16T07:27:31.907Z,66.23
2024-01-16T07:32:36.001Z,66.44
2024-01-16T07:37:40.366Z,66.35
2024-01-16T07:42:44.324Z,66.22
2024-01-16T07:47:48.062Z,66.32
2024-01-16T07:52:50.560Z,66.34
2024-01-16T07:57:52.606Z,66.74
2024-01-16T08:02:54.422Z,66.03
2024-01-16T08:07:56.064Z,65.92
2024-01-16T08:12:57.803Z,65.79
2024-01-16T08:17:59.796Z,66.12
2024-01-16T08:23:02.675Z,65.23
2024-01-16T08:28:06.203Z,65.73
2024-01-16T08:33:08.695Z,66.05
2024-01-16T08:38:12.886Z,65.40
2024-01-16T08:43:14.593Z,64.85
2024-01-16T08:48:16.748Z,65.11
2024-01-16T08:53:18.749Z,64.82
2024-01-16T08:58:20.495Z,65.38
2024-01-16T09:03:22.370Z,64.67
2024-01-16T09:08:24.241Z,64.97
2024-01-16T09:13:26.115Z,64.70
2024-01-16T09:18:27.895Z,64.56
2024-01-16T09:23:29.951Z,64.05
2024-01-16T09:28:31.710Z,64.08
2024-01-16T09:33:33.583Z,63.59
2024-01-16T09:38:35.608Z,63.49
2024-01-16T09:43:38.337Z,64.12
2024-01-16T09:48:43.922Z,63.82
2024-01-16T09:53:45.653Z,63.47
2024-01-16T09:58:50.176Z,64.00
2024-01-16T10:03:54.001Z,63.68
2024-01-16T10:08:55.895Z,63.17
2024-01-16T10:13:59.782Z,63.56
2024-01-16T10:19:07.747Z,62.88
2024-01-16T10:24:14.003Z,63.08
2024-01-16T10:29:15.732Z,62.72
2024-01-16T10:34:24.999Z,62.55
2024-01-16T10:39:35.948Z,62.36
2024-01-16T10:44:55.974Z,62.13
2024-01-16T10:49:58.204Z,61.92
2024-01-16T10:55:05.134Z,61.91
2024-01-16T11:00:09.940Z,62.00
2024-01-16T11:05:13.419Z,61.55
2024-01-16T11:10:17.168Z,61.54
2024-01-16T11:15:19.473Z,61.50
2024-01-16T11:25:34.468Z,60.79
2024-01-16T11:30:37.046Z,60.67
2024-01-16T11:35:39.955Z,60.29
2024-01-16T11:40:41.698Z,60.50
2024-01-16T11:45:50.432Z,60.17
2024-01-16T11:50:53.183Z,59.91
2024-01-16T11:56:38.069Z,59.57
2024-01-16T12:01:46.620Z,59.87
2024-01-16T12:07:01.991Z,59.34
2024-01-16T12:12:04.299Z,59.19
2024-01-16T12:17:10.963Z,58.95
2024-01-16T12:22:14.873Z,58.75
2024-01-16T12:27:16.852Z,58.21
2024-01-16T12:32:19.476Z,57.95
2024-01-16T12:37:21.034Z,57.61
2024-01-16T12:42:25.497Z,57.81
2024-01-16T12:47:27.825Z,57.43
2024-01-16T12:52:31.312Z,57.42
2024-01-16T12:57:33.239Z,57.23
2024-01-16T13:02:34.955Z,57.39
2024-01-16T13:07:36.857Z,57.86
2024-01-16T13:12:38.790Z,58.09
2024-01-16T13:17:40.273Z,57.23
2024-01-16T13:22:45.312Z,57.81
2024-01-16T13:27:49.188Z,57.84
2024-01-16T13:32:51.015Z,57.76
2024-01-16T13:37:52.536Z,57.58
2024-01-16T13:42:54.082Z,57.02
2024-01-16T13:47:56.390Z,57.05
2024-01-16T13:52:57.975Z,57.13
2024-01-16T13:57:59.557Z,57.71
2024-01-16T14:03:02.182Z,57.45
2024-01-16T14:08:04.104Z,57.74
2024-01-16T14:13:05.798Z,57.77
2024-01-16T14:18:07.275Z,57.63
2024-01-16T14:23:08.756Z,57.80
2024-01-16T14:28:18.320Z,57.80
2024-01-16T14:33:24.967Z,57.38
2024-01-16T14:38:26.463Z,57.59
2024-01-16T14:43:27.922Z,57.71
2024-01-16T14:48:29.485Z,57.58
2024-01-16T14:53:32.867Z,57.61
2024-01-16T14:58:34.264Z,57.18
2024-01-16T15:03:35.691Z,56.86
2024-01-16T15:08:37.232Z,56.89
2024-01-16T15:13:38.654Z,56.52
2024-01-16T15:18:40.372Z,57.12
2024-01-16T15:23:41.933Z,56.95
2024-01-16T15:28:45.303Z,57.04
2024-01-16T15:33:47.428Z,57.17
2024-01-16T15:38:49.989Z,57.39
2024-01-16T15:43:51.540Z,57.76
2024-01-16T15:48:53.091Z,57.38
2024-01-16T15:53:54.616Z,57.54
2024-01-16T15:58:56.093Z,57.62
2024-01-16T16:03:57.465Z,57.82
2024-01-16T16:08:59.066Z,57.56
2024-01-16T16:14:00.492Z,57.60
2024-01-16T16:19:02.131Z,57.96
2024-01-16T16:24:04.146Z,58.37
2024-01-16T16:29:07.622Z,58.40
2024-01-16T16:34:12.851Z,58.37
2024-01-16T16:39:17.568Z,58.11
2024-01-16T16:44:19.010Z,58.68
2024-01-16T16:49:20.532Z,59.17
2024-01-16T16:54:22.020Z,59.24
2024-01-16T16:59:23.946Z,58.81
2024-01-16T17:04:25.707Z,58.80
2024-01-16T17:09:27.206Z,58.94
2024-01-16T17:14:28.612Z,59.02
2024-01-16T17:19:30.154Z,59.30
2024-01-16T17:24:31.612Z,59.20
2024-01-16T17:29:33.201Z,59.54
2024-01-16T17:34:35.198Z,59.23
2024-01-16T17:39:36.627Z,59.56
2024-01-16T17:44:50.782Z,59.62
2024-01-16T17:49:52.653Z,59.63
2024-01-16T17:54:54.077Z,59.43
2024-01-16T17:59:55.597Z,59.94
2024-01-16T18:04:57.077Z,59.75
2024-01-16T18:10:00.276Z,59.52
2024-01-16T18:15:02.096Z,60.30
2024-01-16T18:20:05.381Z,59.93
2024-01-16T18:25:09.643Z,60.20
2024-01-16T18:30:16.685Z,59.72
2024-01-16T18:35:18.470Z,60.12
2024-01-16T18:40:21.432Z,59.85
2024-01-16T18:45:22.963Z,60.43
2024-01-16T18:50:26.181Z,60.37
2024-01-16T18:55:27.720Z,59.82
2024-01-16T19:00:29.282Z,60.68
2024-01-16T19:05:31.703Z,60.87
2024-01-16T19:10:33.126Z,60.18
2024-01-16T19:15:34.988Z,61.08
2024-01-16T19:20:36.450Z,60.39
2024-01-16T19:25:37.886Z,60.31
2024-01-16T19:30:39.800Z,61.21
2024-01-16T19:35:41.219Z,60.98
2024-01-16T19:40:42.994Z,60.98
2024-01-16T19:45:47.863Z,60.67
2024-01-16T19:50:49.825Z,61.81
2024-01-16T19:55:52.065Z,61.35
2024-01-16T20:00:53.653Z,61.22
2024-01-16T20:05:55.232Z,61.79
2024-01-16T20:10:58.570Z,61.71
2024-01-16T20:16:02.353Z,62.33
2024-01-16T20:21:05.092Z,62.63
2024-01-16T20:26:06.767Z,62.32
2024-01-16T20:31:08.391Z,61.96
2024-01-16T20:36:09.921Z,61.73
2024-01-16T20:41:12.351Z,61.90
2024-01-16T20:46:15.487Z,62.04
2024-01-16T20:51:17.484Z,62.40
2024-01-16T20:56:19.457Z,63.14
2024-01-16T21:01:20.911Z,62.89
2024-01-16T21:06:22.458Z,63.07
2024-01-16T21:11:24.060Z,62.81
2024-01-16T21:16:25.452Z,63.47
2024-01-16T21:21:26.891Z,63.31
2024-01-16T21:26:29.136Z,62.91
2024-01-16T21:31:30.956Z,63.16
2024-01-16T21:36:32.314Z,63.16
2024-01-16T21:41:35.930Z,63.51
2024-01-16T21:46:40.927Z,63.17
2024-01-16T21:51:45.196Z,63.07
2024-01-16T21:56:46.668Z,63.13
2024-01-16T22:01:48.111Z,63.26
2024-01-16T22:06:49.653Z,63.88
2024-01-16T22:11:51.165Z,64.16
2024-01-16T22:16:52.921Z,63.84
2024-01-16T22:21:54.402Z,63.49
2024-01-16T22:26:55.979Z,64.57
2024-01-16T22:31:58.487Z,64.55
2024-01-16T22:37:00.065Z,64.19
2024-01-16T22:42:02.812Z,64.81
2024-01-16T22:47:04.814Z,64.42
2024-01-16T22:52:06.576Z,64.58
2024-01-16T22:57:08.037Z,64.85
2024-01-16T23:02:09.485Z,64.66
2024-01-16T23:07:10.889Z,64.90
2024-01-16T23:12:13.095Z,64.87
2024-01-16T23:17:14.478Z,65.16
2024-01-16T23:22:15.970Z,65.00
2024-01-16T23:27:17.459Z,64.44
2024-01-16T23:32:18.859Z,64.54
2024-01-16T23:37:24.911Z,64.38
2024-01-16T23:42:27.666Z,64.64
2024-01-16T23:47:29.188Z,64.83
2024-01-16T23:52:30.756Z,64.38
2024-01-16T23:57:32.179Z,64.41
